createdAt,value
2019-03-29T15:30:37.598Z,99.30
2019-03-29T15:33:27.656Z,99.30
2019-03-29T15:36:17.182Z,98.50
2019-03-29T15:39:07.775Z,98.70
2019-03-29T15:41:57.520Z,98.80
2019-03-29T15:44:47.549Z,99.00
2019-03-29T15:47:36.653Z,99.10
2019-03-29T15:50:26.166Z,99.40
2019-03-29T15:53:15.159Z,99.60
2019-03-29T15:56:04.945Z,99.90
2019-03-29T15:58:54.561Z,99.70
2019-03-29T16:01:44.478Z,97.90
2019-03-29T16:04:18.354Z,98.60
2019-03-29T16:07:08.413Z,97.70
2019-03-29T16:09:58.511Z,97.00
2019-03-29T16:12:48.150Z,97.90
2019-03-29T16:15:38.518Z,97.00
2019-03-29T16:18:28.780Z,97.40
2019-03-29T16:21:18.257Z,98.10
2019-03-29T16:24:08.278Z,98.10
2019-03-29T16:26:57.563Z,99.40
2019-03-29T16:29:47.129Z,99.60
2019-03-29T16:32:37.202Z,97.40
2019-03-29T16:35:26.981Z,97.60
2019-03-29T16:38:16.520Z,98.60
2019-03-29T16:41:05.996Z,98.20
2019-03-29T16:43:56.051Z,99.90
2019-03-29T16:46:46.160Z,97.70
2019-03-29T16:49:36.034Z,97.40
2019-03-29T16:52:06.874Z,97.70
2019-03-29T16:54:56.480Z,98.10
2019-03-29T16:57:46.824Z,97.50
2019-03-29T17:00:36.652Z,99.40
2019-03-29T17:03:26.131Z,97.80
2019-03-29T17:06:16.313Z,97.90
2019-03-29T17:09:07.673Z,98.10
2019-03-29T17:11:57.362Z,98.00
2019-03-29T17:14:47.213Z,98.10
2019-03-29T17:17:36.638Z,98.30
2019-03-29T17:20:26.471Z,99.90
2019-03-29T17:22:57.348Z,99.90
2019-03-29T17:25:46.965Z,99.90
2019-03-29T17:28:36.266Z,98.00
2019-03-29T17:31:26.245Z,98.40
2019-03-29T17:34:15.969Z,98.20
2019-03-29T17:37:05.474Z,98.20
2019-03-29T17:39:54.786Z,98.30
2019-03-29T17:42:44.893Z,98.60
2019-03-29T17:45:34.083Z,98.50
2019-03-29T17:48:23.803Z,98.70
2019-03-29T17:51:13.153Z,98.60
2019-03-29T17:54:02.959Z,98.60
2019-03-29T17:56:52.282Z,98.60
2019-03-29T17:59:42.348Z,98.90
2019-03-29T18:02:31.649Z,99.70
2019-03-29T18:05:21.702Z,99.60
2019-03-29T18:08:11.112Z,99.70
2019-03-29T18:11:01.308Z,99.90
2019-03-29T18:13:51.088Z,99.90
2019-03-29T18:16:41.167Z,99.90
2019-03-29T18:19:31.009Z,99.90
2019-03-29T18:22:20.568Z,99.90
2019-03-29T18:25:10.411Z,99.90
2019-03-29T18:28:00.457Z,99.90
2019-03-29T18:30:43.323Z,99.90
2019-03-29T18:33:14.116Z,99.90
2019-03-29T18:35:45.072Z,99.90
2019-03-29T18:38:16.122Z,99.90
2019-03-29T18:40:47.103Z,99.90
2019-03-29T18:43:17.760Z,99.90
2019-03-29T18:45:48.470Z,99.90
2019-03-29T18:48:19.125Z,99.90
2019-03-29T18:50:49.926Z,99.90
2019-03-29T18:53:21.193Z,99.90
2019-03-29T18:55:51.776Z,99.90
2019-03-29T18:58:41.118Z,99.90
2019-03-29T19:01:31.308Z,99.90
2019-03-29T19:04:20.400Z,99.90
2019-03-29T19:07:10.347Z,99.90
2019-03-29T19:10:00.383Z,99.90
2019-03-29T19:12:49.680Z,99.90
2019-03-29T19:15:38.865Z,99.90
2019-03-29T19:18:28.969Z,99.90
2019-03-29T19:21:26.929Z,99.90
2019-03-29T19:24:16.652Z,99.90
2019-03-29T19:27:06.979Z,99.90
2019-03-29T19:29:56.689Z,99.90
2019-03-29T19:32:46.365Z,99.90
2019-03-29T19:35:35.988Z,99.90
2019-03-29T19:38:26.008Z,99.90
2019-03-29T19:41:15.732Z,99.90
2019-03-29T19:44:04.971Z,99.90
2019-03-29T19:46:54.734Z,99.90
2019-03-29T19:49:44.568Z,99.90
2019-03-29T19:52:34.643Z,99.90
2019-03-29T19:55:24.542Z,99.90
2019-03-29T19:58:14.195Z,99.90
2019-03-29T20:01:04.186Z,99.90
2019-03-29T20:03:54.064Z,99.90
2019-03-29T20:06:43.831Z,99.90
2019-03-29T20:09:33.449Z,99.90
2019-03-29T20:12:25.116Z,99.90
2019-03-29T20:15:13.353Z,99.90
2019-03-29T20:18:05.850Z,99.90
2019-03-29T20:20:55.736Z,99.90
2019-03-29T20:23:46.099Z,99.90
2019-03-29T20:26:36.120Z,99.90
2019-03-29T20:29:25.539Z,99.90
2019-03-29T20:32:16.056Z,99.90
2019-03-29T20:35:05.832Z,99.90
2019-03-29T20:37:55.930Z,99.90
2019-03-29T20:40:45.739Z,99.90
2019-03-29T20:43:35.859Z,99.90
2019-03-29T20:46:16.130Z,99.90
2019-03-29T20:49:06.017Z,99.90
2019-03-29T20:51:55.201Z,99.90
2019-03-29T20:54:44.590Z,99.90
2019-03-29T20:57:34.173Z,99.90
2019-03-29T21:00:24.593Z,99.90
2019-03-29T21:03:13.855Z,99.90
2019-03-29T21:06:03.470Z,99.90
2019-03-29T21:08:53.209Z,99.90
2019-03-29T21:11:42.573Z,99.90
2019-03-29T21:14:32.382Z,99.90
2019-03-29T21:17:22.670Z,99.90
2019-03-29T21:20:12.931Z,99.90
2019-03-29T21:23:02.807Z,99.90
2019-03-29T21:25:52.230Z,99.90
2019-03-29T21:28:41.754Z,99.90
2019-03-29T21:31:31.709Z,99.90
2019-03-29T21:34:21.991Z,99.90
2019-03-29T21:37:11.667Z,99.90
2019-03-29T21:40:02.582Z,99.90
2019-03-29T21:42:52.661Z,99.90
2019-03-29T21:45:42.635Z,99.90
2019-03-29T21:48:57.627Z,99.90
2019-03-29T21:51:46.924Z,99.90
2019-03-29T21:54:36.967Z,99.90
2019-03-29T21:57:26.089Z,99.90
2019-03-29T22:00:17.379Z,99.90
2019-03-29T22:03:07.621Z,99.90
2019-03-29T22:05:56.972Z,99.90
2019-03-29T22:08:46.968Z,99.90
2019-03-29T22:11:36.501Z,99.90
2019-03-29T22:14:26.390Z,99.90
2019-03-29T22:17:15.839Z,99.90
2019-03-29T22:20:05.962Z,99.90
2019-03-29T22:22:55.888Z,99.90
2019-03-29T22:25:45.682Z,99.90
2019-03-29T22:28:35.884Z,99.90
2019-03-29T22:31:25.023Z,99.90
2019-03-29T22:34:14.616Z,99.90
2019-03-29T22:37:04.356Z,99.90
2019-03-29T22:39:54.819Z,99.90
2019-03-29T22:42:44.096Z,99.90
2019-03-29T22:45:34.142Z,99.90
2019-03-29T22:48:23.413Z,99.90
2019-03-29T22:51:13.151Z,99.90
2019-03-29T22:54:02.826Z,99.90
2019-03-29T22:56:51.963Z,99.90
2019-03-29T22:59:26.750Z,99.90
2019-03-29T23:02:16.442Z,99.90
2019-03-29T23:05:07.387Z,99.90
2019-03-29T23:07:57.283Z,99.90
2019-03-29T23:10:47.276Z,99.90
2019-03-29T23:13:37.129Z,99.90
2019-03-29T23:16:30.182Z,99.90
2019-03-29T23:19:17.999Z,99.90
2019-03-29T23:22:07.774Z,99.90
2019-03-29T23:24:57.842Z,99.90
2019-03-29T23:27:47.727Z,99.90
2019-03-29T23:30:37.331Z,99.90
2019-03-29T23:33:26.910Z,99.90
2019-03-29T23:36:17.107Z,99.90
2019-03-29T23:39:07.422Z,99.90
2019-03-29T23:41:57.549Z,99.90
2019-03-29T23:44:47.647Z,99.90
2019-03-29T23:47:37.631Z,99.90
2019-03-29T23:50:27.046Z,99.90
2019-03-29T23:53:16.905Z,99.90
2019-03-29T23:56:06.705Z,99.90
2019-03-29T23:58:56.033Z,99.90
